AirNav   Bose ProFlight Aviation Headset
 
 1006 users online  

T94 Twin-Oaks Airport
San Antonio, Texas, USA

GOING TO SAN ANTONIO?


FAA INFORMATION EFFECTIVE 13 SEPTEMBER 2018

Location

FAA Identifier: T94
Lat/Long: 29-34-12.6730N / 098-28-06.2010W
29-34.211217N / 098-28.103350W
29.5701869 / -98.4683892
(estimated)
Elevation: 873 ft. / 266 m (estimated)
Variation: 07E (1985)
From city: 3 miles N of SAN ANTONIO, TX
Time zone: UTC -5 (UTC -6 during Standard Time)
Zip code: 78232

Airport Operations

Airport use: Open to the public
Activation date: 03/1964
Control tower: no
ARTCC: HOUSTON CENTER
FSS: SAN ANGELO FLIGHT SERVICE STATION
NOTAMs facility: SJT (NOTAM-D service available)
Attendance: UNATNDD
Wind indicator: yes
Segmented circle: no

Airport Communications

CTAF: 122.9
WX ASOS at SAT (2.2 nm S): PHONE 210-805-5583
WX ASOS at SSF (14 nm S): PHONE 210-927-9391
WX AWOS-3 at 5C1 (15 nm NW): 118.725 (830-755-9099)

Nearby radio navigation aids

VOR radial/distance  VOR name  Freq  Var
SATr177/4.4SAN ANTONIO VORTAC116.8008E
RNDr283/10.0RANDOLPH VORTAC112.3005E
SSFr347/(18.8)STINSON VOR108.4009E

 
NDB name  Hdg/Dist  Freq  Var  ID
ALAMO109/5.736804EAN .- -.
DEVINE037/35.735907EHHH .... .... ....
HONDO064/38.632908EHMA .... -- .-

Airport Services

Parking: hangars and tiedowns
Airframe service: MINOR
Powerplant service: MINOR
Bulk oxygen: NONE

Runway Information

Runway 12/30

Dimensions: 2225 x 30 ft. / 678 x 9 m
Surface: asphalt, in fair condition
Weight bearing capacity: 
Single wheel: 4.0
Runway edge markings: RY NUMBERS 10 FT TALL; CNTRLN STRIPE 20 FT LONG WITH 20 FT SPACES.
RUNWAY 12  RUNWAY 30
Gradient: 1.9%1.9%
Traffic pattern: leftleft
Markings: NSTD, in good conditionNSTD, in good condition
Obstructions: 65 ft. trees, 200 ft. from runway
+6 FT FENCE 30 FT L; ACES ROAD 50 FT R; BLDGS 60-100 FT L OF EXTDD CNTRLN; +30 FT TREE 17 FT FM RY END; +30-50 FT TREES FM THLD TO 200 FT FM THLD ACRS APCH; 5 FT FENCE 23 FT FM THLD ACRS APCH; 15 FT ROAD 34 FT FM THLD ACRS APCH.
34 ft. tree, 200 ft. from runway
6 FT FENCE 40 FT EAST OF RY; 5 FT FENCE 23 FT FM THLD ACROSS APPROACH; 13 FT ROAD 33 FT FM THLD ACROSS APPROACH.

Airport Ownership and Management from official FAA records

Ownership: Privately-owned
Owner: TWIN OAKS AIR PARK
630 HEIMER RD
SAN ANTONIO, TX 78232
Phone 210-494-3928
Manager: SHIRLEY FOWLER
630 HEIMER RD
SAN ANTONIO, TX 78232
Phone 210-494-3928

Airport Operational Statistics

Aircraft based on the field: 12
Single engine airplanes: 12
    
Aircraft operations: avg 48/month *
87% local general aviation
13% transient general aviation
* for 12-month period ending 12 May 2017

Additional Remarks

HGRS, TREES, BLDGS WITHIN 50' OF RWY.
RESIDENTAL HOUSES, HANGARS AND TREES OBSTRUCT RY PRIM SFC NORTHEAST OF RY.
ARPT CLSD AT NIGHT TO TRANSIENT ACFT.
WOODEN FENCE LCTD APRXLY 70 FT EAST OF RY ENTIRE LENGTH OF RY.
COORD ARR & DEP WITH SAN ANTONIO INTL ATCT.
FOR CD CTC SAT APCH AT 210-805-5516.

Instrument Procedures

There are no published instrument procedures at T94.

Some nearby airports with instrument procedures:

KSAT - San Antonio International Airport (2 nm S)
KRND - Randolph Air Force Base (10 nm E)
KSKF - Kelly Field Airport (13 nm SW)
KSSF - Stinson Municipal Airport (14 nm S)
5C1 - Boerne Stage Field Airport (15 nm NW)
 
Loc | Ops | Rwys | IFR | FBO | Links
Com | Nav | Svcs | Stats | Notes


 
Area around T94 (Twin-Oaks Airport)
 
Road maps at: MapQuest Bing Google
 
Aerial photo
WARNING: Photo may not be current or correct
Aerial photo of T94 (Twin-Oaks Airport)
Do you have a better or more recent aerial photo of Twin-Oaks Airport that you would like to share? If so, please send us your photo.

 
Sectional chart

 
Airport distance calculator
Flying to Twin-Oaks Airport? Find the distance to fly.

From to T94

Sunrise and sunset
Times for 22-Sep-2018
 Local
(UTC-5)
 Zulu
(UTC)
Morning civil twilight06:5911:59
Sunrise07:2312:23
Sunset19:3000:30
Evening civil twilight19:5400:54

Current date and time
Zulu (UTC)  22-Sep-2018 14:09:38
Local (UTC-5)  22-Sep-2018 09:09:38
 
METAR
KSAT 
2nm S 
221351Z 34007KT 10SM -RA SCT018 SCT040 BKN170 OVC250 22/20 A2996 RMK AO2 SLP127 P0000 T02170200
KRND 
11nm E 
221104Z AUTO 25006KT 10SM CLR 22/21 A2992 RMK AO2 LTG DSNT SE-S SLP124 $
KSKF 
13nm SW 
220156Z 00000KT 10SM SCT040 SCT250 27/24 A2988 RMK AO2A SLP111 T02720238 $
KSSF 
14nm S 
221353Z 36006KT 10SM -RA FEW050 BKN110 24/22 A2993 RMK AO2 SLP122 P0002 T02390217 $
K5C1 
15nm NW 
221355Z AUTO 34010G15KT 10SM OVC010 18/17 A3001 RMK AO1
TAF
KSAT 
2nm S 
221120Z 2212/2318 24007KT 6SM -RA SCT010 OVC100 TEMPO 2212/2213 6SM -TSRA BKN015CB FM221300 29008KT P6SM VCSH BKN015 OVC120 FM221500 34011KT P6SM BKN030 BKN150
KRND 
11nm E 
211848Z 2118/2223 18009KT 9999 SCT020 BKN030 BKN150 QNH2985INS TEMPO 2122/2202 VRB15G25KT 6000 -TSRA BKN025CB TEMPO 2202/2206 17015G25KT BECMG 2205/2206 16006KT 9999 BKN006 BKN025 OVC150 QNH2988INS BECMG 2215/2216 17009KT 8000 -SHRA FEW015 SCT050 BKN100 QNH2991INS TX32/2121Z TN25/2213Z LAST NO AMDS AFT 2200 NEXT 2409
KSKF 
13nm SW 
221200Z 2212/2316 33009KT 8000 -SHRA SCT015 OVC035 QNH2987INS TEMPO 2212/2214 33015G25KT 6000 -TSRA BKN015CB OVC035 BECMG 2214/2215 33012KT 9999 NSW BKN015 QNH2992INS BECMG 2217/2218 35012G18KT 9999 BKN030 QNH2986INS BECMG 2223/2224 35009KT 9999 BKN025 QNH2988INS BECMG 2305/2306 33006KT 9999 BKN015 QNH2990INS TX28/2221Z TN19/2309Z
KSSF 
14nm S 
221120Z 2212/2312 24006KT 6SM -RA SCT010 OVC100 TEMPO 2212/2213 5SM -TSRA BKN015CB FM221400 29008KT P6SM VCSH BKN015 OVC120 FM221600 34010KT P6SM BKN030 BKN150
NOTAMs
Click for the latest NOTAMs
NOTAMs are issued by the DoD/FAA and will open in a separate window not controlled by AirNav.

 

 
 

Would you like to see your business listed on this page?

 If your business provides an interesting product or service to pilots, flight crews, aircraft, or users of the Twin-Oaks Airport, you should consider listing it here.  To start the listing process, click on the button below
 
Add a business
 

Other Pages about Twin-Oaks Airport

Update a link
 
Copyright © AirNav, LLC. All rights reserved. Privacy Policy  Contact